sensor_id;sensor_type;location;lat;lon;timestamp;P1;durP1;ratioP1;P2;durP2;ratioP2
64684;SDS011;51109;47.414;18.954;2023-04-25T00:00:00;1.20;;;1.10;;
64684;SDS011;51109;47.414;18.954;2023-04-25T00:02:25;1.35;;;1.20;;
64684;SDS011;51109;47.414;18.954;2023-04-25T00:04:53;1.90;;;1.30;;
64684;SDS011;51109;47.414;18.954;2023-04-25T00:07:19;1.80;;;1.33;;
64684;SDS011;51109;47.414;18.954;2023-04-25T00:09:45;1.70;;;1.60;;
64684;SDS011;51109;47.414;18.954;2023-04-25T00:12:11;1.40;;;1.30;;
64684;SDS011;51109;47.414;18.954;2023-04-25T00:14:37;1.48;;;1.25;;
64684;SDS011;51109;47.414;18.954;2023-04-25T00:17:03;1.30;;;1.20;;
64684;SDS011;51109;47.414;18.954;2023-04-25T00:19:29;2.63;;;1.58;;
64684;SDS011;51109;47.414;18.954;2023-04-25T00:21:55;1.63;;;1.45;;
64684;SDS011;51109;47.414;18.954;2023-04-25T00:24:21;1.83;;;1.50;;
64684;SDS011;51109;47.414;18.954;2023-04-25T00:26:47;1.92;;;1.52;;
64684;SDS011;51109;47.414;18.954;2023-04-25T00:29:13;1.50;;;1.40;;
64684;SDS011;51109;47.414;18.954;2023-04-25T00:31:39;1.90;;;1.60;;
64684;SDS011;51109;47.414;18.954;2023-04-25T00:34:08;1.40;;;1.30;;
64684;SDS011;51109;47.414;18.954;2023-04-25T00:36:34;1.95;;;1.60;;
64684;SDS011;51109;47.414;18.954;2023-04-25T00:39:00;1.77;;;1.50;;
64684;SDS011;51109;47.414;18.954;2023-04-25T00:41:26;1.70;;;1.58;;
64684;SDS011;51109;47.414;18.954;2023-04-25T00:43:53;1.75;;;1.60;;
64684;SDS011;51109;47.414;18.954;2023-04-25T00:46:20;2.97;;;1.65;;
64684;SDS011;51109;47.414;18.954;2023-04-25T00:48:46;1.77;;;1.38;;
64684;SDS011;51109;47.414;18.954;2023-04-25T00:51:14;2.85;;;2.05;;
64684;SDS011;51109;47.414;18.954;2023-04-25T00:53:44;2.30;;;2.10;;
64684;SDS011;51109;47.414;18.954;2023-04-25T00:56:10;2.88;;;1.85;;
64684;SDS011;51109;47.414;18.954;2023-04-25T00:58:36;2.58;;;1.80;;
64684;SDS011;51109;47.414;18.954;2023-04-25T01:01:03;5.00;;;2.30;;
64684;SDS011;51109;47.414;18.954;2023-04-25T01:03:31;3.30;;;2.78;;
64684;SDS011;51109;47.414;18.954;2023-04-25T01:05:58;3.40;;;2.20;;
64684;SDS011;51109;47.414;18.954;2023-04-25T01:08:24;3.03;;;2.53;;
64684;SDS011;51109;47.414;18.954;2023-04-25T01:10:50;2.47;;;2.28;;
64684;SDS011;51109;47.414;18.954;2023-04-25T01:13:16;3.33;;;2.45;;
64684;SDS011;51109;47.414;18.954;2023-04-25T01:15:42;3.60;;;2.78;;
64684;SDS011;51109;47.414;18.954;2023-04-25T01:18:09;2.75;;;2.30;;
64684;SDS011;51109;47.414;18.954;2023-04-25T01:20:35;4.10;;;2.83;;
64684;SDS011;51109;47.414;18.954;2023-04-25T01:23:03;3.25;;;2.53;;
64684;SDS011;51109;47.414;18.954;2023-04-25T01:25:30;2.47;;;2.20;;
64684;SDS011;51109;47.414;18.954;2023-04-25T01:27:57;2.88;;;2.30;;
64684;SDS011;51109;47.414;18.954;2023-04-25T01:30:24;1.75;;;1.65;;
64684;SDS011;51109;47.414;18.954;2023-04-25T01:32:52;2.65;;;2.35;;
64684;SDS011;51109;47.414;18.954;2023-04-25T01:35:21;3.33;;;2.55;;
64684;SDS011;51109;47.414;18.954;2023-04-25T01:37:49;2.50;;;1.80;;
64684;SDS011;51109;47.414;18.954;2023-04-25T01:40:15;3.28;;;2.20;;
64684;SDS011;51109;47.414;18.954;2023-04-25T01:42:43;2.78;;;2.13;;
64684;SDS011;51109;47.414;18.954;2023-04-25T01:45:10;2.03;;;1.83;;
64684;SDS011;51109;47.414;18.954;2023-04-25T01:47:37;3.00;;;2.20;;
64684;SDS011;51109;47.414;18.954;2023-04-25T01:50:05;2.28;;;2.10;;
64684;SDS011;51109;47.414;18.954;2023-04-25T01:52:32;2.63;;;1.83;;
64684;SDS011;51109;47.414;18.954;2023-04-25T01:55:01;4.20;;;1.77;;
64684;SDS011;51109;47.414;18.954;2023-04-25T01:57:28;2.53;;;1.98;;
64684;SDS011;51109;47.414;18.954;2023-04-25T01:59:58;2.95;;;2.42;;
64684;SDS011;51109;47.414;18.954;2023-04-25T02:02:25;2.67;;;2.08;;
64684;SDS011;51109;47.414;18.954;2023-04-25T02:04:52;5.38;;;2.58;;
64684;SDS011;51109;47.414;18.954;2023-04-25T02:07:18;2.72;;;2.30;;
64684;SDS011;51109;47.414;18.954;2023-04-25T02:09:43;2.85;;;2.45;;
64684;SDS011;51109;47.414;18.954;2023-04-25T02:12:10;2.95;;;1.83;;
64684;SDS011;51109;47.414;18.954;2023-04-25T02:14:36;2.17;;;1.63;;
64684;SDS011;51109;47.414;18.954;2023-04-25T02:17:02;6.63;;;2.67;;
64684;SDS011;51109;47.414;18.954;2023-04-25T02:19:28;3.30;;;2.30;;
64684;SDS011;51109;47.414;18.954;2023-04-25T02:21:54;9.32;;;1.90;;
64684;SDS011;51109;47.414;18.954;2023-04-25T02:24:22;3.15;;;2.05;;
64684;SDS011;51109;47.414;18.954;2023-04-25T02:26:48;2.25;;;1.88;;
64684;SDS011;51109;47.414;18.954;2023-04-25T02:29:15;5.13;;;1.98;;
64684;SDS011;51109;47.414;18.954;2023-04-25T02:31:41;2.47;;;2.20;;
64684;SDS011;51109;47.414;18.954;2023-04-25T02:34:07;2.13;;;1.83;;
64684;SDS011;51109;47.414;18.954;2023-04-25T02:36:33;2.85;;;1.95;;
64684;SDS011;51109;47.414;18.954;2023-04-25T02:39:01;2.42;;;2.13;;
64684;SDS011;51109;47.414;18.954;2023-04-25T02:41:28;4.22;;;2.15;;
64684;SDS011;51109;47.414;18.954;2023-04-25T02:43:54;3.03;;;2.67;;
64684;SDS011;51109;47.414;18.954;2023-04-25T02:46:20;3.55;;;2.33;;
64684;SDS011;51109;47.414;18.954;2023-04-25T02:48:46;2.53;;;2.20;;
64684;SDS011;51109;47.414;18.954;2023-04-25T02:51:12;3.40;;;2.08;;
64684;SDS011;51109;47.414;18.954;2023-04-25T02:53:38;2.33;;;2.00;;
64684;SDS011;51109;47.414;18.954;2023-04-25T02:56:04;2.38;;;2.03;;
64684;SDS011;51109;47.414;18.954;2023-04-25T02:58:30;2.28;;;2.00;;
64684;SDS011;51109;47.414;18.954;2023-04-25T03:03:23;2.90;;;2.00;;
64684;SDS011;51109;47.414;18.954;2023-04-25T03:05:49;2.85;;;2.00;;
64684;SDS011;51109;47.414;18.954;2023-04-25T03:08:17;2.90;;;2.22;;
64684;SDS011;51109;47.414;18.954;2023-04-25T03:10:43;2.28;;;1.92;;
64684;SDS011;51109;47.414;18.954;2023-04-25T03:13:10;3.55;;;2.85;;
64684;SDS011;51109;47.414;18.954;2023-04-25T03:15:36;2.05;;;1.70;;
64684;SDS011;51109;47.414;18.954;2023-04-25T03:18:02;4.82;;;1.88;;
64684;SDS011;51109;47.414;18.954;2023-04-25T03:20:29;2.63;;;2.42;;
64684;SDS011;51109;47.414;18.954;2023-04-25T03:22:55;3.58;;;2.13;;
64684;SDS011;51109;47.414;18.954;2023-04-25T03:25:21;2.92;;;2.17;;
64684;SDS011;51109;47.414;18.954;2023-04-25T03:27:47;2.40;;;2.20;;
64684;SDS011;51109;47.414;18.954;2023-04-25T03:30:13;2.67;;;2.47;;
64684;SDS011;51109;47.414;18.954;2023-04-25T03:32:39;2.78;;;2.40;;
64684;SDS011;51109;47.414;18.954;2023-04-25T03:35:05;2.63;;;2.17;;
64684;SDS011;51109;47.414;18.954;2023-04-25T03:37:31;3.58;;;2.08;;
64684;SDS011;51109;47.414;18.954;2023-04-25T03:39:57;2.97;;;2.25;;
64684;SDS011;51109;47.414;18.954;2023-04-25T03:42:23;2.65;;;2.33;;
64684;SDS011;51109;47.414;18.954;2023-04-25T03:44:49;3.80;;;2.08;;
64684;SDS011;51109;47.414;18.954;2023-04-25T03:47:24;3.38;;;2.53;;
64684;SDS011;51109;47.414;18.954;2023-04-25T03:49:50;2.45;;;2.25;;
64684;SDS011;51109;47.414;18.954;2023-04-25T03:52:17;3.10;;;2.53;;
64684;SDS011;51109;47.414;18.954;2023-04-25T03:54:43;4.85;;;2.30;;
64684;SDS011;51109;47.414;18.954;2023-04-25T03:57:09;3.70;;;2.53;;
64684;SDS011;51109;47.414;18.954;2023-04-25T03:59:35;3.53;;;2.50;;
64684;SDS011;51109;47.414;18.954;2023-04-25T04:02:01;3.95;;;2.22;;
64684;SDS011;51109;47.414;18.954;2023-04-25T04:04:27;2.88;;;2.53;;
64684;SDS011;51109;47.414;18.954;2023-04-25T04:06:53;3.92;;;2.67;;
64684;SDS011;51109;47.414;18.954;2023-04-25T04:09:19;2.97;;;2.40;;
64684;SDS011;51109;47.414;18.954;2023-04-25T04:11:45;4.43;;;2.67;;
64684;SDS011;51109;47.414;18.954;2023-04-25T04:14:11;3.92;;;2.80;;
64684;SDS011;51109;47.414;18.954;2023-04-25T04:16:37;4.00;;;2.47;;
64684;SDS011;51109;47.414;18.954;2023-04-25T04:19:09;3.50;;;2.38;;
64684;SDS011;51109;47.414;18.954;2023-04-25T04:21:36;6.57;;;2.70;;
64684;SDS011;51109;47.414;18.954;2023-04-25T04:24:02;3.08;;;2.67;;
64684;SDS011;51109;47.414;18.954;2023-04-25T04:26:28;3.30;;;2.45;;
64684;SDS011;51109;47.414;18.954;2023-04-25T04:28:54;2.80;;;2.33;;
64684;SDS011;51109;47.414;18.954;2023-04-25T04:31:20;3.38;;;2.38;;
64684;SDS011;51109;47.414;18.954;2023-04-25T04:33:47;4.10;;;2.60;;
64684;SDS011;51109;47.414;18.954;2023-04-25T04:36:13;4.63;;;3.22;;
64684;SDS011;51109;47.414;18.954;2023-04-25T04:38:39;2.88;;;2.58;;
64684;SDS011;51109;47.414;18.954;2023-04-25T04:41:06;3.60;;;2.72;;
64684;SDS011;51109;47.414;18.954;2023-04-25T04:43:32;3.95;;;2.92;;
64684;SDS011;51109;47.414;18.954;2023-04-25T04:46:00;3.97;;;2.70;;
64684;SDS011;51109;47.414;18.954;2023-04-25T04:48:26;5.68;;;2.83;;
64684;SDS011;51109;47.414;18.954;2023-04-25T04:50:53;3.30;;;2.85;;
64684;SDS011;51109;47.414;18.954;2023-04-25T04:53:19;6.45;;;3.40;;
64684;SDS011;51109;47.414;18.954;2023-04-25T04:55:45;3.83;;;2.60;;
64684;SDS011;51109;47.414;18.954;2023-04-25T04:58:11;4.32;;;3.05;;
64684;SDS011;51109;47.414;18.954;2023-04-25T05:00:37;8.43;;;3.35;;
64684;SDS011;51109;47.414;18.954;2023-04-25T05:03:03;4.53;;;3.88;;
64684;SDS011;51109;47.414;18.954;2023-04-25T05:05:30;6.68;;;3.55;;
64684;SDS011;51109;47.414;18.954;2023-04-25T05:07:56;3.25;;;2.38;;
64684;SDS011;51109;47.414;18.954;2023-04-25T05:10:22;4.85;;;2.80;;
64684;SDS011;51109;47.414;18.954;2023-04-25T05:12:48;6.22;;;3.78;;
64684;SDS011;51109;47.414;18.954;2023-04-25T05:15:14;5.15;;;3.65;;
64684;SDS011;51109;47.414;18.954;2023-04-25T05:17:40;5.72;;;3.97;;
64684;SDS011;51109;47.414;18.954;2023-04-25T05:20:06;5.05;;;3.78;;
64684;SDS011;51109;47.414;18.954;2023-04-25T05:22:35;5.00;;;4.05;;
64684;SDS011;51109;47.414;18.954;2023-04-25T05:25:01;6.38;;;3.38;;
64684;SDS011;51109;47.414;18.954;2023-04-25T05:27:28;4.82;;;3.42;;
64684;SDS011;51109;47.414;18.954;2023-04-25T05:29:55;6.32;;;3.67;;
64684;SDS011;51109;47.414;18.954;2023-04-25T05:32:20;6.90;;;4.32;;
64684;SDS011;51109;47.414;18.954;2023-04-25T05:34:46;9.50;;;4.55;;
64684;SDS011;51109;47.414;18.954;2023-04-25T05:37:12;10.30;;;4.32;;
64684;SDS011;51109;47.414;18.954;2023-04-25T05:39:38;6.53;;;4.43;;
64684;SDS011;51109;47.414;18.954;2023-04-25T05:42:04;5.80;;;4.40;;
64684;SDS011;51109;47.414;18.954;2023-04-25T05:44:30;5.68;;;4.40;;
64684;SDS011;51109;47.414;18.954;2023-04-25T05:46:56;5.85;;;3.95;;
64684;SDS011;51109;47.414;18.954;2023-04-25T05:49:22;8.32;;;3.72;;
64684;SDS011;51109;47.414;18.954;2023-04-25T05:51:48;7.07;;;4.22;;
64684;SDS011;51109;47.414;18.954;2023-04-25T05:54:14;6.80;;;4.65;;
64684;SDS011;51109;47.414;18.954;2023-04-25T05:56:40;5.97;;;3.58;;
64684;SDS011;51109;47.414;18.954;2023-04-25T05:59:06;6.85;;;3.97;;
64684;SDS011;51109;47.414;18.954;2023-04-25T06:01:32;7.22;;;4.25;;
64684;SDS011;51109;47.414;18.954;2023-04-25T06:03:58;7.68;;;4.10;;
64684;SDS011;51109;47.414;18.954;2023-04-25T06:06:24;4.43;;;3.40;;
64684;SDS011;51109;47.414;18.954;2023-04-25T06:08:50;5.88;;;3.70;;
64684;SDS011;51109;47.414;18.954;2023-04-25T06:11:16;4.55;;;3.35;;
64684;SDS011;51109;47.414;18.954;2023-04-25T06:13:42;5.03;;;4.22;;
64684;SDS011;51109;47.414;18.954;2023-04-25T06:16:08;5.63;;;3.60;;
64684;SDS011;51109;47.414;18.954;2023-04-25T06:18:34;3.92;;;3.53;;
64684;SDS011;51109;47.414;18.954;2023-04-25T06:21:00;4.55;;;3.42;;
64684;SDS011;51109;47.414;18.954;2023-04-25T06:23:26;5.93;;;3.95;;
64684;SDS011;51109;47.414;18.954;2023-04-25T06:25:52;5.25;;;3.88;;
64684;SDS011;51109;47.414;18.954;2023-04-25T06:28:18;4.20;;;3.22;;
64684;SDS011;51109;47.414;18.954;2023-04-25T06:30:44;6.28;;;4.60;;
64684;SDS011;51109;47.414;18.954;2023-04-25T06:33:10;5.68;;;3.33;;
64684;SDS011;51109;47.414;18.954;2023-04-25T06:35:36;5.20;;;3.55;;
64684;SDS011;51109;47.414;18.954;2023-04-25T06:38:02;4.70;;;3.42;;
64684;SDS011;51109;47.414;18.954;2023-04-25T06:40:28;5.40;;;3.67;;
64684;SDS011;51109;47.414;18.954;2023-04-25T06:42:54;12.75;;;3.95;;
64684;SDS011;51109;47.414;18.954;2023-04-25T06:45:20;3.88;;;3.05;;
64684;SDS011;51109;47.414;18.954;2023-04-25T06:47:46;5.88;;;3.45;;
64684;SDS011;51109;47.414;18.954;2023-04-25T06:50:12;3.20;;;2.28;;
64684;SDS011;51109;47.414;18.954;2023-04-25T06:52:37;4.25;;;3.50;;
64684;SDS011;51109;47.414;18.954;2023-04-25T06:55:03;3.63;;;3.30;;
64684;SDS011;51109;47.414;18.954;2023-04-25T06:57:30;5.45;;;3.58;;
64684;SDS011;51109;47.414;18.954;2023-04-25T06:59:57;5.13;;;3.85;;
64684;SDS011;51109;47.414;18.954;2023-04-25T07:02:22;4.75;;;3.67;;
64684;SDS011;51109;47.414;18.954;2023-04-25T07:04:48;6.95;;;3.75;;
64684;SDS011;51109;47.414;18.954;2023-04-25T07:07:14;3.83;;;3.03;;
64684;SDS011;51109;47.414;18.954;2023-04-25T07:09:41;4.80;;;3.42;;
64684;SDS011;51109;47.414;18.954;2023-04-25T07:12:07;7.15;;;3.45;;
64684;SDS011;51109;47.414;18.954;2023-04-25T07:14:32;6.05;;;4.00;;
64684;SDS011;51109;47.414;18.954;2023-04-25T07:16:58;5.00;;;3.30;;
64684;SDS011;51109;47.414;18.954;2023-04-25T07:19:24;5.55;;;3.20;;
64684;SDS011;51109;47.414;18.954;2023-04-25T07:21:52;4.15;;;3.35;;
64684;SDS011;51109;47.414;18.954;2023-04-25T07:24:18;5.60;;;3.92;;
64684;SDS011;51109;47.414;18.954;2023-04-25T07:26:44;4.43;;;3.05;;
64684;SDS011;51109;47.414;18.954;2023-04-25T07:29:10;4.80;;;3.17;;
64684;SDS011;51109;47.414;18.954;2023-04-25T07:31:36;7.95;;;4.13;;
64684;SDS011;51109;47.414;18.954;2023-04-25T07:34:02;5.07;;;3.42;;
64684;SDS011;51109;47.414;18.954;2023-04-25T07:36:28;4.38;;;3.60;;
64684;SDS011;51109;47.414;18.954;2023-04-25T07:38:54;3.80;;;2.78;;
64684;SDS011;51109;47.414;18.954;2023-04-25T07:41:20;3.60;;;3.22;;
64684;SDS011;51109;47.414;18.954;2023-04-25T07:43:46;5.63;;;3.50;;
64684;SDS011;51109;47.414;18.954;2023-04-25T07:46:11;6.35;;;3.30;;
64684;SDS011;51109;47.414;18.954;2023-04-25T07:48:37;9.18;;;3.53;;
64684;SDS011;51109;47.414;18.954;2023-04-25T07:51:03;4.10;;;3.42;;
64684;SDS011;51109;47.414;18.954;2023-04-25T07:53:30;4.00;;;2.58;;
64684;SDS011;51109;47.414;18.954;2023-04-25T07:55:57;4.03;;;3.05;;
64684;SDS011;51109;47.414;18.954;2023-04-25T07:58:23;4.38;;;3.17;;
64684;SDS011;51109;47.414;18.954;2023-04-25T08:00:49;3.38;;;2.85;;
64684;SDS011;51109;47.414;18.954;2023-04-25T08:03:15;3.33;;;3.00;;
64684;SDS011;51109;47.414;18.954;2023-04-25T08:05:41;3.80;;;2.88;;
64684;SDS011;51109;47.414;18.954;2023-04-25T08:08:07;3.35;;;2.72;;
64684;SDS011;51109;47.414;18.954;2023-04-25T08:10:33;3.38;;;3.08;;
64684;SDS011;51109;47.414;18.954;2023-04-25T08:12:59;2.67;;;2.30;;
64684;SDS011;51109;47.414;18.954;2023-04-25T08:15:25;3.85;;;2.95;;
64684;SDS011;51109;47.414;18.954;2023-04-25T08:17:51;5.97;;;2.95;;
64684;SDS011;51109;47.414;18.954;2023-04-25T08:20:18;3.95;;;3.40;;
64684;SDS011;51109;47.414;18.954;2023-04-25T08:22:44;3.92;;;2.90;;
64684;SDS011;51109;47.414;18.954;2023-04-25T08:25:09;3.70;;;3.30;;
64684;SDS011;51109;47.414;18.954;2023-04-25T08:27:35;4.18;;;3.22;;
64684;SDS011;51109;47.414;18.954;2023-04-25T08:30:02;4.63;;;2.72;;
64684;SDS011;51109;47.414;18.954;2023-04-25T08:32:33;3.45;;;3.00;;
64684;SDS011;51109;47.414;18.954;2023-04-25T08:34:59;3.72;;;2.90;;
64684;SDS011;51109;47.414;18.954;2023-04-25T08:37:25;4.15;;;2.90;;
64684;SDS011;51109;47.414;18.954;2023-04-25T08:39:51;3.42;;;3.00;;
64684;SDS011;51109;47.414;18.954;2023-04-25T08:42:18;3.03;;;2.63;;
64684;SDS011;51109;47.414;18.954;2023-04-25T08:44:47;4.78;;;3.05;;
64684;SDS011;51109;47.414;18.954;2023-04-25T08:47:14;4.40;;;3.20;;
64684;SDS011;51109;47.414;18.954;2023-04-25T08:49:43;4.40;;;3.08;;
64684;SDS011;51109;47.414;18.954;2023-04-25T08:52:11;4.18;;;3.15;;
64684;SDS011;51109;47.414;18.954;2023-04-25T08:54:41;3.53;;;2.90;;
64684;SDS011;51109;47.414;18.954;2023-04-25T08:57:09;3.47;;;2.70;;
64684;SDS011;51109;47.414;18.954;2023-04-25T08:59:36;5.75;;;3.42;;
64684;SDS011;51109;47.414;18.954;2023-04-25T09:02:04;3.33;;;3.03;;
64684;SDS011;51109;47.414;18.954;2023-04-25T09:04:31;2.92;;;2.42;;
64684;SDS011;51109;47.414;18.954;2023-04-25T09:06:57;5.20;;;3.47;;
64684;SDS011;51109;47.414;18.954;2023-04-25T09:09:24;5.38;;;3.15;;
64684;SDS011;51109;47.414;18.954;2023-04-25T09:11:50;5.20;;;3.53;;
64684;SDS011;51109;47.414;18.954;2023-04-25T09:14:21;5.53;;;3.10;;
64684;SDS011;51109;47.414;18.954;2023-04-25T09:19:28;5.35;;;2.88;;
64684;SDS011;51109;47.414;18.954;2023-04-25T09:21:57;3.33;;;2.90;;
64684;SDS011;51109;47.414;18.954;2023-04-25T09:26:56;3.75;;;3.40;;
64684;SDS011;51109;47.414;18.954;2023-04-25T09:29:29;4.18;;;3.15;;
64684;SDS011;51109;47.414;18.954;2023-04-25T09:34:50;3.10;;;2.80;;
64684;SDS011;51109;47.414;18.954;2023-04-25T09:37:29;3.15;;;2.85;;
64684;SDS011;51109;47.414;18.954;2023-04-25T09:39:57;2.53;;;2.33;;
64684;SDS011;51109;47.414;18.954;2023-04-25T09:42:30;3.17;;;2.88;;
64684;SDS011;51109;47.414;18.954;2023-04-25T09:45:00;2.47;;;2.28;;
64684;SDS011;51109;47.414;18.954;2023-04-25T09:47:29;2.70;;;2.35;;
64684;SDS011;51109;47.414;18.954;2023-04-25T09:49:55;2.60;;;2.40;;
64684;SDS011;51109;47.414;18.954;2023-04-25T09:52:21;6.07;;;2.20;;
64684;SDS011;51109;47.414;18.954;2023-04-25T09:54:49;3.17;;;2.03;;
64684;SDS011;51109;47.414;18.954;2023-04-25T09:59:49;2.45;;;2.03;;
64684;SDS011;51109;47.414;18.954;2023-04-25T10:02:18;4.93;;;2.25;;
64684;SDS011;51109;47.414;18.954;2023-04-25T10:04:52;2.00;;;1.83;;
64684;SDS011;51109;47.414;18.954;2023-04-25T10:07:20;2.10;;;1.90;;
64684;SDS011;51109;47.414;18.954;2023-04-25T10:10:00;1.80;;;1.70;;
64684;SDS011;51109;47.414;18.954;2023-04-25T10:12:28;1.90;;;1.52;;
64684;SDS011;51109;47.414;18.954;2023-04-25T10:14:58;1.30;;;1.20;;
64684;SDS011;51109;47.414;18.954;2023-04-25T10:17:25;1.30;;;1.20;;
64684;SDS011;51109;47.414;18.954;2023-04-25T10:19:55;2.53;;;1.45;;
64684;SDS011;51109;47.414;18.954;2023-04-25T10:22:32;1.50;;;1.30;;
64684;SDS011;51109;47.414;18.954;2023-04-25T10:25:01;1.38;;;1.25;;
64684;SDS011;51109;47.414;18.954;2023-04-25T10:27:31;1.20;;;1.10;;
64684;SDS011;51109;47.414;18.954;2023-04-25T10:30:05;1.30;;;1.20;;
64684;SDS011;51109;47.414;18.954;2023-04-25T10:32:44;1.55;;;1.23;;
64684;SDS011;51109;47.414;18.954;2023-04-25T10:35:14;1.02;;;0.93;;
64684;SDS011;51109;47.414;18.954;2023-04-25T10:40:29;1.10;;;1.00;;
64684;SDS011;51109;47.414;18.954;2023-04-25T10:42:55;1.73;;;1.00;;
64684;SDS011;51109;47.414;18.954;2023-04-25T10:46:02;1.10;;;1.00;;
64684;SDS011;51109;47.414;18.954;2023-04-25T10:48:28;0.70;;;0.70;;
64684;SDS011;51109;47.414;18.954;2023-04-25T10:51:08;0.90;;;0.90;;
64684;SDS011;51109;47.414;18.954;2023-04-25T10:53:34;0.50;;;0.50;;
64684;SDS011;51109;47.414;18.954;2023-04-25T10:56:08;0.70;;;0.70;;
64684;SDS011;51109;47.414;18.954;2023-04-25T10:58:47;0.80;;;0.80;;
64684;SDS011;51109;47.414;18.954;2023-04-25T11:01:14;1.10;;;0.80;;
64684;SDS011;51109;47.414;18.954;2023-04-25T11:03:44;0.68;;;0.68;;
64684;SDS011;51109;47.414;18.954;2023-04-25T11:06:23;0.60;;;0.60;;
64684;SDS011;51109;47.414;18.954;2023-04-25T11:09:02;0.60;;;0.60;;
64684;SDS011;51109;47.414;18.954;2023-04-25T11:11:36;0.60;;;0.60;;
64684;SDS011;51109;47.414;18.954;2023-04-25T11:14:02;1.73;;;1.15;;
64684;SDS011;51109;47.414;18.954;2023-04-25T11:16:28;1.40;;;0.93;;
64684;SDS011;51109;47.414;18.954;2023-04-25T11:18:56;1.35;;;0.70;;
64684;SDS011;51109;47.414;18.954;2023-04-25T11:21:23;0.70;;;0.70;;
64684;SDS011;51109;47.414;18.954;2023-04-25T11:23:53;0.40;;;0.40;;
64684;SDS011;51109;47.414;18.954;2023-04-25T11:26:21;1.75;;;1.27;;
64684;SDS011;51109;47.414;18.954;2023-04-25T11:28:48;0.40;;;0.40;;
64684;SDS011;51109;47.414;18.954;2023-04-25T11:31:14;0.80;;;0.80;;
64684;SDS011;51109;47.414;18.954;2023-04-25T11:33:40;0.52;;;0.52;;
64684;SDS011;51109;47.414;18.954;2023-04-25T11:36:07;0.47;;;0.47;;
64684;SDS011;51109;47.414;18.954;2023-04-25T11:38:34;0.50;;;0.50;;
64684;SDS011;51109;47.414;18.954;2023-04-25T11:41:00;0.50;;;0.50;;
64684;SDS011;51109;47.414;18.954;2023-04-25T11:43:26;0.70;;;0.70;;
64684;SDS011;51109;47.414;18.954;2023-04-25T11:45:52;0.65;;;0.60;;
64684;SDS011;51109;47.414;18.954;2023-04-25T11:48:18;1.42;;;0.73;;
64684;SDS011;51109;47.414;18.954;2023-04-25T11:50:45;0.80;;;0.80;;
64684;SDS011;51109;47.414;18.954;2023-04-25T11:53:11;0.95;;;0.95;;
64684;SDS011;51109;47.414;18.954;2023-04-25T11:55:37;0.70;;;0.70;;
64684;SDS011;51109;47.414;18.954;2023-04-25T11:58:03;1.00;;;1.00;;
64684;SDS011;51109;47.414;18.954;2023-04-25T12:00:29;0.77;;;0.77;;
64684;SDS011;51109;47.414;18.954;2023-04-25T12:02:56;0.85;;;0.85;;
64684;SDS011;51109;47.414;18.954;2023-04-25T12:05:24;0.80;;;0.80;;
64684;SDS011;51109;47.414;18.954;2023-04-25T12:07:52;0.80;;;0.80;;
64684;SDS011;51109;47.414;18.954;2023-04-25T12:10:20;0.90;;;0.90;;
64684;SDS011;51109;47.414;18.954;2023-04-25T12:12:47;0.85;;;0.80;;
64684;SDS011;51109;47.414;18.954;2023-04-25T12:15:23;0.98;;;0.95;;
64684;SDS011;51109;47.414;18.954;2023-04-25T12:17:51;0.80;;;0.80;;
64684;SDS011;51109;47.414;18.954;2023-04-25T12:20:20;0.93;;;0.93;;
64684;SDS011;51109;47.414;18.954;2023-04-25T12:22:50;0.65;;;0.65;;
64684;SDS011;51109;47.414;18.954;2023-04-25T12:28:10;0.70;;;0.70;;
64684;SDS011;51109;47.414;18.954;2023-04-25T12:33:28;0.80;;;0.73;;
64684;SDS011;51109;47.414;18.954;2023-04-25T12:35:55;2.05;;;0.82;;
64684;SDS011;51109;47.414;18.954;2023-04-25T12:40:48;1.33;;;1.25;;
64684;SDS011;51109;47.414;18.954;2023-04-25T12:43:14;0.98;;;0.90;;
64684;SDS011;51109;47.414;18.954;2023-04-25T12:45:40;0.98;;;0.98;;
64684;SDS011;51109;47.414;18.954;2023-04-25T12:48:06;1.02;;;0.93;;
64684;SDS011;51109;47.414;18.954;2023-04-25T12:50:32;1.20;;;1.10;;
64684;SDS011;51109;47.414;18.954;2023-04-25T12:52:58;1.85;;;1.05;;
64684;SDS011;51109;47.414;18.954;2023-04-25T12:55:24;1.10;;;1.00;;
64684;SDS011;51109;47.414;18.954;2023-04-25T12:57:50;1.48;;;1.10;;
64684;SDS011;51109;47.414;18.954;2023-04-25T13:00:16;2.45;;;1.17;;
64684;SDS011;51109;47.414;18.954;2023-04-25T13:02:45;1.23;;;0.90;;
64684;SDS011;51109;47.414;18.954;2023-04-25T13:05:14;0.90;;;0.90;;
64684;SDS011;51109;47.414;18.954;2023-04-25T13:07:40;2.05;;;1.35;;
64684;SDS011;51109;47.414;18.954;2023-04-25T13:10:06;1.67;;;1.20;;
64684;SDS011;51109;47.414;18.954;2023-04-25T13:12:33;2.10;;;0.80;;
64684;SDS011;51109;47.414;18.954;2023-04-25T13:14:59;0.82;;;0.82;;
64684;SDS011;51109;47.414;18.954;2023-04-25T13:17:25;1.20;;;1.10;;
64684;SDS011;51109;47.414;18.954;2023-04-25T13:19:51;1.08;;;1.08;;
64684;SDS011;51109;47.414;18.954;2023-04-25T13:22:16;1.70;;;0.93;;
64684;SDS011;51109;47.414;18.954;2023-04-25T13:24:45;0.90;;;0.90;;
64684;SDS011;51109;47.414;18.954;2023-04-25T13:27:12;1.40;;;1.25;;
64684;SDS011;51109;47.414;18.954;2023-04-25T13:29:38;0.85;;;0.85;;
64684;SDS011;51109;47.414;18.954;2023-04-25T13:32:06;1.15;;;1.05;;
64684;SDS011;51109;47.414;18.954;2023-04-25T13:34:33;2.97;;;1.02;;
64684;SDS011;51109;47.414;18.954;2023-04-25T13:36:58;1.27;;;1.05;;
64684;SDS011;51109;47.414;18.954;2023-04-25T13:39:25;1.45;;;1.30;;
64684;SDS011;51109;47.414;18.954;2023-04-25T13:41:51;0.90;;;0.90;;
64684;SDS011;51109;47.414;18.954;2023-04-25T13:44:17;1.08;;;1.00;;
64684;SDS011;51109;47.414;18.954;2023-04-25T13:46:43;1.90;;;0.95;;
64684;SDS011;51109;47.414;18.954;2023-04-25T13:49:09;1.30;;;1.20;;
64684;SDS011;51109;47.414;18.954;2023-04-25T13:51:35;1.27;;;1.10;;
64684;SDS011;51109;47.414;18.954;2023-04-25T13:54:01;2.25;;;1.10;;
64684;SDS011;51109;47.414;18.954;2023-04-25T13:56:27;1.30;;;1.20;;
64684;SDS011;51109;47.414;18.954;2023-04-25T13:58:53;1.23;;;1.13;;
64684;SDS011;51109;47.414;18.954;2023-04-25T14:01:19;1.67;;;1.20;;
64684;SDS011;51109;47.414;18.954;2023-04-25T14:03:46;1.30;;;1.20;;
64684;SDS011;51109;47.414;18.954;2023-04-25T14:06:12;1.33;;;1.23;;
64684;SDS011;51109;47.414;18.954;2023-04-25T14:08:38;1.55;;;1.08;;
64684;SDS011;51109;47.414;18.954;2023-04-25T14:11:04;1.30;;;1.20;;
64684;SDS011;51109;47.414;18.954;2023-04-25T14:13:30;1.48;;;1.38;;
64684;SDS011;51109;47.414;18.954;2023-04-25T14:15:57;1.25;;;1.15;;
64684;SDS011;51109;47.414;18.954;2023-04-25T14:18:23;1.35;;;1.25;;
64684;SDS011;51109;47.414;18.954;2023-04-25T14:20:50;2.50;;;1.10;;
64684;SDS011;51109;47.414;18.954;2023-04-25T14:23:16;1.83;;;1.20;;
64684;SDS011;51109;47.414;18.954;2023-04-25T14:25:42;2.05;;;1.40;;
64684;SDS011;51109;47.414;18.954;2023-04-25T14:28:09;2.25;;;1.45;;
64684;SDS011;51109;47.414;18.954;2023-04-25T14:30:35;1.40;;;1.30;;
64684;SDS011;51109;47.414;18.954;2023-04-25T14:33:01;1.63;;;1.10;;
64684;SDS011;51109;47.414;18.954;2023-04-25T14:35:27;1.17;;;1.00;;
64684;SDS011;51109;47.414;18.954;2023-04-25T14:37:53;1.27;;;1.17;;
64684;SDS011;51109;47.414;18.954;2023-04-25T14:40:19;1.30;;;1.20;;
64684;SDS011;51109;47.414;18.954;2023-04-25T14:42:48;1.40;;;1.08;;
64684;SDS011;51109;47.414;18.954;2023-04-25T14:45:15;1.38;;;1.02;;
64684;SDS011;51109;47.414;18.954;2023-04-25T14:47:42;2.05;;;1.67;;
64684;SDS011;51109;47.414;18.954;2023-04-25T14:50:08;1.20;;;1.05;;
64684;SDS011;51109;47.414;18.954;2023-04-25T14:52:35;1.30;;;1.15;;
64684;SDS011;51109;47.414;18.954;2023-04-25T14:55:01;1.50;;;1.38;;